createdAt,value
2023-02-23T00:29:21.759Z,34.05
2023-02-23T00:31:50.254Z,34.38
2023-02-23T00:34:23.518Z,35.60
2023-02-23T00:36:54.454Z,40.63
2023-02-23T00:39:26.407Z,34.22
2023-02-23T00:41:55.288Z,33.45
2023-02-23T00:44:23.824Z,33.15
2023-02-23T00:46:52.024Z,32.80
2023-02-23T00:49:21.955Z,31.50
2023-02-23T00:51:49.219Z,33.63
2023-02-23T00:54:17.295Z,35.28
2023-02-23T00:56:45.170Z,29.73
2023-02-23T00:59:12.512Z,32.70
2023-02-23T01:01:41.829Z,33.90
2023-02-23T01:04:09.892Z,30.70
2023-02-23T01:06:37.798Z,29.92
2023-02-23T01:09:10.639Z,28.58
2023-02-23T01:11:37.747Z,30.70
2023-02-23T01:14:05.190Z,31.60
2023-02-23T01:16:34.816Z,28.02
2023-02-23T01:19:04.806Z,30.23
2023-02-23T01:21:34.895Z,34.75
2023-02-23T01:24:02.550Z,33.00
2023-02-23T01:26:33.994Z,30.05
2023-02-23T01:29:04.257Z,31.77
2023-02-23T01:31:31.426Z,30.73
2023-02-23T01:34:00.431Z,31.10
2023-02-23T01:36:29.222Z,28.15
2023-02-23T01:38:57.192Z,27.15
2023-02-23T01:41:26.855Z,28.92
2023-02-23T01:43:58.575Z,27.55
2023-02-23T01:46:26.028Z,31.02
2023-02-23T01:48:56.422Z,28.00
2023-02-23T01:51:27.754Z,28.48
2023-02-23T01:54:07.961Z,27.08
2023-02-23T01:56:43.360Z,28.70
2023-02-23T01:59:13.151Z,25.88
2023-02-23T02:01:40.818Z,27.27
2023-02-23T02:04:09.060Z,28.70
2023-02-23T02:06:38.175Z,26.10
2023-02-23T02:09:10.367Z,27.45
2023-02-23T02:11:38.789Z,25.27
2023-02-23T02:14:14.721Z,24.88
2023-02-23T02:17:02.521Z,25.38
2023-02-23T02:19:48.726Z,23.35
2023-02-23T02:22:54.199Z,22.58
2023-02-23T02:25:40.978Z,24.13
2023-02-23T02:28:41.764Z,22.60
2023-02-23T02:31:31.248Z,25.80
2023-02-23T02:34:19.010Z,25.38
2023-02-23T02:37:18.773Z,28.95
2023-02-23T02:40:24.685Z,29.02
2023-02-23T02:43:00.154Z,26.55
2023-02-23T02:45:41.815Z,28.75
2023-02-23T02:48:35.598Z,32.13
2023-02-23T02:51:28.644Z,31.63
2023-02-23T02:54:24.043Z,36.40
2023-02-23T02:56:57.600Z,31.80
2023-02-23T02:59:43.332Z,30.50
2023-02-23T03:02:36.176Z,31.08
2023-02-23T03:05:26.220Z,34.03
2023-02-23T03:08:36.202Z,32.08
2023-02-23T03:11:25.263Z,32.28
2023-02-23T03:14:43.992Z,35.28
2023-02-23T03:17:44.184Z,39.65
2023-02-23T03:20:52.762Z,45.67
2023-02-23T03:24:03.006Z,44.28
2023-02-23T03:27:00.752Z,41.78
2023-02-23T03:29:52.089Z,43.83
2023-02-23T03:33:00.445Z,50.47
2023-02-23T03:36:06.591Z,46.17
2023-02-23T03:39:15.059Z,49.75
2023-02-23T03:42:02.909Z,48.35
2023-02-23T03:44:56.502Z,47.67
2023-02-23T03:47:46.022Z,48.75
2023-02-23T03:50:43.011Z,54.20
2023-02-23T03:53:31.536Z,49.15
2023-02-23T03:56:19.719Z,51.08
2023-02-23T03:59:14.873Z,55.75
2023-02-23T04:02:00.880Z,54.55
2023-02-23T04:04:47.939Z,54.45
2023-02-23T04:07:37.206Z,59.05
2023-02-23T04:10:23.734Z,55.45
2023-02-23T04:13:12.747Z,54.72
2023-02-23T04:15:45.887Z,60.75
2023-02-23T04:18:21.826Z,58.88
2023-02-23T04:20:48.770Z,58.38
2023-02-23T04:23:15.800Z,51.42
2023-02-23T04:25:43.096Z,49.80
2023-02-23T04:28:10.164Z,51.55
2023-02-23T04:30:37.050Z,45.95
2023-02-23T04:33:04.124Z,50.47
2023-02-23T04:35:31.481Z,49.15
2023-02-23T04:37:58.986Z,55.67
2023-02-23T04:40:27.116Z,52.08
2023-02-23T04:42:54.694Z,49.42
2023-02-23T04:45:23.528Z,53.40
2023-02-23T04:47:50.927Z,43.70
2023-02-23T04:50:18.547Z,50.92
2023-02-23T04:52:45.515Z,49.53
2023-02-23T04:55:21.521Z,49.97
2023-02-23T04:57:48.689Z,46.35
2023-02-23T05:00:17.008Z,45.90
2023-02-23T05:02:43.986Z,45.92
2023-02-23T05:05:12.163Z,49.75
2023-02-23T05:07:39.453Z,46.78
2023-02-23T05:10:07.190Z,47.70
2023-02-23T05:12:34.125Z,50.72
2023-02-23T05:15:01.089Z,48.53
2023-02-23T05:17:28.023Z,46.47
2023-02-23T05:19:54.933Z,47.90
2023-02-23T05:22:22.639Z,46.53
2023-02-23T05:24:49.456Z,44.67
2023-02-23T05:27:17.586Z,50.38
2023-02-23T05:29:44.856Z,50.75
2023-02-23T05:32:11.937Z,44.92
2023-02-23T05:34:39.209Z,44.38
2023-02-23T05:37:06.712Z,43.72
2023-02-23T05:39:33.605Z,46.67
2023-02-23T05:42:00.452Z,44.90
2023-02-23T05:44:27.601Z,44.90
2023-02-23T05:46:54.530Z,39.33
2023-02-23T05:49:21.558Z,48.10
2023-02-23T05:51:48.913Z,38.95
2023-02-23T05:54:15.802Z,45.85
2023-02-23T05:56:43.226Z,40.97
2023-02-23T05:59:10.141Z,43.63
2023-02-23T06:01:36.992Z,42.22
2023-02-23T06:04:06.090Z,40.22
2023-02-23T06:06:33.246Z,40.25
2023-02-23T06:09:00.435Z,41.28
2023-02-23T06:11:27.370Z,42.03
2023-02-23T06:13:54.203Z,41.40
2023-02-23T06:16:21.206Z,43.08
2023-02-23T06:18:48.210Z,43.38
2023-02-23T06:21:15.111Z,44.17
2023-02-23T06:23:42.042Z,40.15
2023-02-23T06:26:09.440Z,43.53
2023-02-23T06:28:36.529Z,45.67
2023-02-23T06:31:03.474Z,40.45
2023-02-23T06:33:30.483Z,42.50
2023-02-23T06:35:57.351Z,42.15
2023-02-23T06:38:24.226Z,41.33
2023-02-23T06:40:51.208Z,43.45
2023-02-23T06:43:18.150Z,40.63
2023-02-23T06:45:47.069Z,42.67
2023-02-23T06:48:14.004Z,41.58
2023-02-23T06:50:40.953Z,40.38
2023-02-23T06:53:08.441Z,45.95
2023-02-23T06:55:35.455Z,41.33
2023-02-23T06:58:03.274Z,41.55
2023-02-23T07:00:30.707Z,42.47
2023-02-23T07:02:57.948Z,41.72
2023-02-23T07:05:24.738Z,45.67
2023-02-23T07:07:52.096Z,42.20
2023-02-23T07:10:19.038Z,42.60
2023-02-23T07:12:45.846Z,41.72
2023-02-23T07:15:12.933Z,41.78
2023-02-23T07:17:39.955Z,35.08
2023-02-23T07:20:07.168Z,39.47
2023-02-23T07:22:34.274Z,37.22
2023-02-23T07:25:01.321Z,39.35
2023-02-23T07:27:28.508Z,40.55
2023-02-23T07:29:55.388Z,41.92
2023-02-23T07:32:22.428Z,44.05
2023-02-23T07:34:49.510Z,43.38
2023-02-23T07:37:17.204Z,47.90
2023-02-23T07:39:44.289Z,44.80
2023-02-23T07:42:11.284Z,47.47
2023-02-23T07:44:38.619Z,45.60
2023-02-23T07:47:06.514Z,45.25
2023-02-23T07:49:34.185Z,46.10
2023-02-23T07:52:01.157Z,50.78
2023-02-23T07:54:28.333Z,49.97
2023-02-23T07:56:55.530Z,51.28
2023-02-23T07:59:22.577Z,53.60
2023-02-23T08:01:49.671Z,46.47
2023-02-23T08:04:16.795Z,51.05
2023-02-23T08:06:44.021Z,48.97
2023-02-23T08:09:11.684Z,47.30
2023-02-23T08:11:38.995Z,52.72
2023-02-23T08:14:06.073Z,51.97
2023-02-23T08:16:34.065Z,46.80
2023-02-23T08:19:01.361Z,51.85
2023-02-23T08:21:29.650Z,45.55
2023-02-23T08:23:59.721Z,47.38
2023-02-23T08:26:27.082Z,49.38
2023-02-23T08:28:54.674Z,50.67
2023-02-23T08:31:24.131Z,56.65
2023-02-23T08:33:51.653Z,47.42
2023-02-23T08:36:20.733Z,54.53
2023-02-23T08:38:48.157Z,54.22
2023-02-23T08:41:15.685Z,53.70
2023-02-23T08:43:44.066Z,50.70
2023-02-23T08:46:11.912Z,57.47
2023-02-23T08:48:40.676Z,53.72
2023-02-23T08:51:08.573Z,49.75
2023-02-23T08:53:36.455Z,58.42
2023-02-23T08:56:06.181Z,52.83
2023-02-23T08:58:35.207Z,49.95
2023-02-23T09:01:02.538Z,55.42
2023-02-23T09:03:33.372Z,55.13
2023-02-23T09:06:09.303Z,56.90
2023-02-23T09:08:36.826Z,53.13
2023-02-23T09:11:03.754Z,57.10
2023-02-23T09:13:30.843Z,54.92
2023-02-23T09:15:57.942Z,54.72
2023-02-23T09:18:29.526Z,56.70
2023-02-23T09:20:57.218Z,58.75
2023-02-23T09:23:28.180Z,52.15
2023-02-23T09:25:55.140Z,47.83
2023-02-23T09:28:22.263Z,53.17
2023-02-23T09:30:49.304Z,52.78
2023-02-23T09:33:17.341Z,51.03
2023-02-23T09:35:44.487Z,52.63
2023-02-23T09:38:11.529Z,51.25
2023-02-23T09:40:54.894Z,54.88
2023-02-23T09:43:48.514Z,53.08
2023-02-23T09:46:29.565Z,52.00
2023-02-23T09:48:58.947Z,53.67
2023-02-23T09:51:27.248Z,49.42
2023-02-23T09:53:56.781Z,53.03
2023-02-23T09:56:38.185Z,47.78
2023-02-23T09:59:08.123Z,51.80
2023-02-23T10:01:48.596Z,54.85
2023-02-23T10:04:31.255Z,52.75
2023-02-23T10:07:05.211Z,51.20
2023-02-23T10:09:42.458Z,53.05
2023-02-23T10:12:17.475Z,53.15
2023-02-23T10:15:06.704Z,52.38
2023-02-23T10:17:45.835Z,51.08
2023-02-23T10:20:18.585Z,50.80
2023-02-23T10:22:49.420Z,51.95
2023-02-23T10:25:28.892Z,48.97
2023-02-23T10:27:58.684Z,50.00
2023-02-23T10:30:31.030Z,44.92
2023-02-23T10:33:27.012Z,50.35
2023-02-23T10:36:12.931Z,49.97
2023-02-23T10:38:41.205Z,44.85
2023-02-23T10:41:09.993Z,52.88
2023-02-23T10:43:37.213Z,47.00
2023-02-23T10:46:05.723Z,45.05
2023-02-23T10:48:40.000Z,49.30
2023-02-23T10:51:13.478Z,47.83
2023-02-23T10:53:40.436Z,47.85
2023-02-23T10:56:16.060Z,47.33
2023-02-23T10:58:46.595Z,44.33
2023-02-23T11:02:00.519Z,44.55
2023-02-23T11:04:34.954Z,35.53
2023-02-23T11:07:09.419Z,37.90
2023-02-23T11:09:46.567Z,38.53
2023-02-23T11:12:22.395Z,37.65
2023-02-23T11:14:54.932Z,33.58
2023-02-23T11:17:42.964Z,31.23
2023-02-23T11:20:29.167Z,25.40
2023-02-23T11:23:03.667Z,22.38
2023-02-23T11:25:38.722Z,26.58
2023-02-23T11:28:06.027Z,27.33
2023-02-23T11:30:38.069Z,26.90
2023-02-23T11:33:12.669Z,27.35
2023-02-23T11:35:39.692Z,26.33
2023-02-23T11:38:28.259Z,24.92
2023-02-23T11:41:04.169Z,30.90
2023-02-23T11:43:31.510Z,28.45
2023-02-23T11:46:01.424Z,32.63
2023-02-23T11:48:33.335Z,33.78
2023-02-23T11:51:01.449Z,30.60
2023-02-23T11:53:31.434Z,34.22
2023-02-23T11:56:08.095Z,35.95
2023-02-23T11:58:50.588Z,35.35
2023-02-23T12:01:43.962Z,35.88
2023-02-23T12:04:23.869Z,37.38
2023-02-23T12:06:51.702Z,39.72
2023-02-23T12:09:29.194Z,38.58
2023-02-23T12:12:14.184Z,37.10
2023-02-23T12:14:55.828Z,42.47
2023-02-23T12:17:28.336Z,39.45
2023-02-23T12:20:21.514Z,40.05
2023-02-23T12:23:07.400Z,39.42
2023-02-23T12:26:11.645Z,40.80
2023-02-23T12:28:58.725Z,41.47
2023-02-23T12:31:40.420Z,43.92
2023-02-23T12:34:37.040Z,39.80
2023-02-23T12:37:24.990Z,44.33
2023-02-23T12:39:58.620Z,44.30
2023-02-23T12:42:38.380Z,40.92
2023-02-23T12:45:07.613Z,39.15
2023-02-23T12:47:51.886Z,41.85
2023-02-23T12:50:27.600Z,39.75
2023-02-23T12:52:58.604Z,39.25
2023-02-23T12:56:04.787Z,42.30
2023-02-23T12:58:56.409Z,40.92
2023-02-23T13:01:27.476Z,39.03
2023-02-23T13:04:09.526Z,38.38
2023-02-23T13:07:12.987Z,35.70
2023-02-23T13:09:51.974Z,36.40
2023-02-23T13:12:54.368Z,40.25
2023-02-23T13:15:24.676Z,38.80
2023-02-23T13:18:28.524Z,40.95
2023-02-23T13:21:10.226Z,36.33
2023-02-23T13:23:54.592Z,36.78
2023-02-23T13:26:42.071Z,39.50
2023-02-23T13:29:43.486Z,39.40
2023-02-23T13:32:14.833Z,41.15
2023-02-23T13:34:55.383Z,38.08
2023-02-23T13:37:28.589Z,42.78
2023-02-23T13:40:19.767Z,39.25
2023-02-23T13:43:17.610Z,40.38
2023-02-23T13:46:10.918Z,41.45
2023-02-23T13:48:56.739Z,46.67
2023-02-23T13:51:30.603Z,43.10
2023-02-23T13:54:06.142Z,45.05
2023-02-23T13:56:43.000Z,42.67
2023-02-23T13:59:33.443Z,43.45
2023-02-23T14:02:06.867Z,41.75
2023-02-23T14:04:42.466Z,41.95
2023-02-23T14:07:09.457Z,41.97
2023-02-23T14:09:54.442Z,42.45
2023-02-23T14:12:41.977Z,43.20
2023-02-23T14:15:39.738Z,47.15
2023-02-23T14:18:18.823Z,40.70
2023-02-23T14:21:20.523Z,42.92
2023-02-23T14:23:47.598Z,43.05
2023-02-23T14:26:15.817Z,42.72
2023-02-23T14:29:07.316Z,41.60
2023-02-23T14:31:35.854Z,38.45
2023-02-23T14:34:13.489Z,40.78
2023-02-23T14:36:44.634Z,41.25
2023-02-23T14:39:23.851Z,36.55
2023-02-23T14:41:54.734Z,34.63
2023-02-23T14:44:36.554Z,39.33
2023-02-23T14:47:07.844Z,41.20
2023-02-23T14:49:44.788Z,38.20
2023-02-23T14:52:24.991Z,32.58
2023-02-23T14:55:04.296Z,37.92
2023-02-23T14:57:36.689Z,32.00
2023-02-23T15:00:11.828Z,34.45
2023-02-23T15:02:53.667Z,33.67
2023-02-23T15:05:25.325Z,33.95
2023-02-23T15:07:54.522Z,30.85
2023-02-23T15:10:37.536Z,30.73
2023-02-23T15:13:29.135Z,33.47
2023-02-23T15:16:06.546Z,28.70
2023-02-23T15:18:43.226Z,29.38
2023-02-23T15:21:13.893Z,29.00
2023-02-23T15:23:40.994Z,28.33
2023-02-23T15:26:33.922Z,30.23
2023-02-23T15:29:21.325Z,26.27
2023-02-23T15:31:52.391Z,27.08
2023-02-23T15:34:22.277Z,25.58
2023-02-23T15:37:04.571Z,28.45
2023-02-23T15:39:40.081Z,28.27
2023-02-23T15:42:13.757Z,25.20
2023-02-23T15:44:44.942Z,24.45
2023-02-23T15:47:28.495Z,26.63
2023-02-23T15:50:07.467Z,26.27
2023-02-23T15:52:38.702Z,29.80
2023-02-23T15:55:10.157Z,24.58
2023-02-23T15:57:57.331Z,24.27
2023-02-23T16:00:40.708Z,22.55
2023-02-23T16:03:21.351Z,23.10
2023-02-23T16:06:03.279Z,23.50
2023-02-23T16:08:30.951Z,24.58
2023-02-23T16:11:14.237Z,22.73
2023-02-23T16:13:54.546Z,21.48
2023-02-23T16:16:25.453Z,23.92
2023-02-23T16:18:55.349Z,21.67
2023-02-23T16:21:24.970Z,20.38
2023-02-23T16:23:54.573Z,21.55
2023-02-23T16:26:33.607Z,19.98
2023-02-23T16:29:03.502Z,20.85
2023-02-23T16:31:43.495Z,19.17
2023-02-23T16:34:35.574Z,20.35
2023-02-23T16:37:18.107Z,21.90
2023-02-23T16:39:45.582Z,18.83
2023-02-23T16:42:30.760Z,20.15
2023-02-23T16:44:58.915Z,15.77
2023-02-23T16:47:36.435Z,17.75
2023-02-23T16:50:24.522Z,16.92
2023-02-23T16:52:53.183Z,16.50
2023-02-23T16:55:26.164Z,14.75
2023-02-23T16:58:02.584Z,14.32
2023-02-23T17:00:32.099Z,13.48
2023-02-23T17:03:00.706Z,14.38
2023-02-23T17:05:28.862Z,14.13
2023-02-23T17:07:58.224Z,13.40
2023-02-23T17:10:31.044Z,14.80
2023-02-23T17:13:05.091Z,14.35
2023-02-23T17:15:37.415Z,12.25
2023-02-23T17:18:05.252Z,12.65
2023-02-23T17:20:32.896Z,13.40
2023-02-23T17:23:02.018Z,13.75
2023-02-23T17:25:29.285Z,11.32
2023-02-23T17:27:57.625Z,14.25
2023-02-23T17:30:25.452Z,11.80
2023-02-23T17:32:54.815Z,13.93
2023-02-23T17:35:23.028Z,12.80
2023-02-23T17:37:50.464Z,14.93
2023-02-23T17:40:32.763Z,12.60
2023-02-23T17:43:00.901Z,12.07
2023-02-23T17:45:28.780Z,12.00
2023-02-23T17:47:56.133Z,10.60
2023-02-23T17:50:24.207Z,11.88
2023-02-23T17:52:51.567Z,12.40
2023-02-23T17:55:19.828Z,11.52
2023-02-23T17:57:47.188Z,12.70
2023-02-23T18:00:16.773Z,12.05
2023-02-23T18:02:45.278Z,12.70
2023-02-23T18:05:14.123Z,11.90
2023-02-23T18:07:41.712Z,12.95
2023-02-23T18:10:09.531Z,11.35
2023-02-23T18:12:36.546Z,11.55
2023-02-23T18:15:03.636Z,12.98
2023-02-23T18:17:32.583Z,12.43
2023-02-23T18:20:00.578Z,14.88
2023-02-23T18:22:27.491Z,14.27
2023-02-23T18:24:55.675Z,14.07
2023-02-23T18:27:24.543Z,12.95
2023-02-23T18:29:51.369Z,15.10
2023-02-23T18:32:18.556Z,15.82
2023-02-23T18:34:45.628Z,13.82
2023-02-23T18:37:12.551Z,12.90
2023-02-23T18:39:39.436Z,12.00
2023-02-23T18:42:06.410Z,12.80
2023-02-23T18:44:35.194Z,13.75
2023-02-23T18:47:02.541Z,16.00
2023-02-23T18:49:29.524Z,12.45
2023-02-23T18:51:56.687Z,13.05
2023-02-23T18:54:25.978Z,13.32
2023-02-23T18:56:54.446Z,14.32
2023-02-23T18:59:21.341Z,14.15
2023-02-23T19:01:49.216Z,15.55
2023-02-23T19:04:16.158Z,12.65
2023-02-23T19:06:44.905Z,14.43
2023-02-23T19:09:14.405Z,15.68
2023-02-23T19:11:43.077Z,14.15
2023-02-23T19:14:18.382Z,12.77
2023-02-23T19:16:46.906Z,12.95
2023-02-23T19:19:15.180Z,12.88
2023-02-23T19:21:42.155Z,12.77
2023-02-23T19:24:09.397Z,14.60
2023-02-23T19:26:38.144Z,17.48
2023-02-23T19:29:05.585Z,14.02
2023-02-23T19:31:33.085Z,13.48
2023-02-23T19:34:03.401Z,13.13
2023-02-23T19:36:31.717Z,13.57
2023-02-23T19:39:15.742Z,14.07
2023-02-23T19:41:45.595Z,12.25
2023-02-23T19:44:12.522Z,16.13
2023-02-23T19:46:40.061Z,14.10
2023-02-23T19:49:07.358Z,13.68
2023-02-23T19:51:34.366Z,13.48
2023-02-23T19:54:02.148Z,13.05
2023-02-23T19:56:29.761Z,12.13
2023-02-23T19:58:59.456Z,16.75
2023-02-23T20:01:27.770Z,12.82
2023-02-23T20:04:02.056Z,15.57
2023-02-23T20:06:34.318Z,16.25
2023-02-23T20:09:04.980Z,14.25
2023-02-23T20:11:32.834Z,15.93
2023-02-23T20:14:00.794Z,15.90
2023-02-23T20:16:29.626Z,15.70
2023-02-23T20:18:58.016Z,16.20
2023-02-23T20:21:26.879Z,16.58
2023-02-23T20:23:55.856Z,16.63
2023-02-23T20:26:26.534Z,17.33
2023-02-23T20:28:57.339Z,17.92
2023-02-23T20:31:27.291Z,21.02
2023-02-23T20:33:56.057Z,20.15
2023-02-23T20:36:24.598Z,23.48
2023-02-23T20:38:51.980Z,18.65
2023-02-23T20:41:20.104Z,19.38
2023-02-23T20:43:47.383Z,18.23
2023-02-23T20:46:16.517Z,20.42
2023-02-23T20:48:43.630Z,21.38
2023-02-23T20:51:15.141Z,18.27
2023-02-23T20:53:42.251Z,14.65
2023-02-23T20:56:10.021Z,13.63
2023-02-23T20:58:37.214Z,12.35
2023-02-23T21:01:06.591Z,12.63
2023-02-23T21:03:34.984Z,15.07
2023-02-23T21:06:01.985Z,13.25
2023-02-23T21:08:30.051Z,16.35
2023-02-23T21:10:56.892Z,13.27
2023-02-23T21:13:26.466Z,11.65
2023-02-23T21:16:01.045Z,12.70
2023-02-23T21:18:28.975Z,11.40
2023-02-23T21:20:56.897Z,12.18
2023-02-23T21:23:24.953Z,10.25
2023-02-23T21:25:53.997Z,14.00
2023-02-23T21:28:21.121Z,16.65
2023-02-23T21:30:48.227Z,18.52
2023-02-23T21:33:15.409Z,20.58
2023-02-23T21:35:42.414Z,18.48
2023-02-23T21:38:10.489Z,17.15
2023-02-23T21:40:42.224Z,16.13
2023-02-23T21:43:09.318Z,15.23
2023-02-23T21:45:39.114Z,18.17
2023-02-23T21:48:06.055Z,19.83
2023-02-23T21:50:32.998Z,19.48
2023-02-23T21:52:59.978Z,19.30
2023-02-23T21:55:27.063Z,13.32
2023-02-23T21:57:54.857Z,20.58
2023-02-23T22:00:22.756Z,21.13
2023-02-23T22:02:50.576Z,19.90
2023-02-23T22:05:18.763Z,14.63
2023-02-23T22:07:51.696Z,20.02
2023-02-23T22:10:21.495Z,15.23
2023-02-23T22:12:50.280Z,22.92
2023-02-23T22:15:17.252Z,17.75
2023-02-23T22:17:44.496Z,19.10
2023-02-23T22:20:12.074Z,18.65
2023-02-23T22:22:38.941Z,21.67
2023-02-23T22:25:07.475Z,18.02
2023-02-23T22:27:34.574Z,19.73
2023-02-23T22:30:01.958Z,18.38
2023-02-23T22:32:32.822Z,21.52
2023-02-23T22:35:01.008Z,17.65
2023-02-23T22:37:32.030Z,16.08
2023-02-23T22:40:08.118Z,21.30
2023-02-23T22:42:35.401Z,16.65
2023-02-23T22:45:02.276Z,18.15
2023-02-23T22:47:29.252Z,16.55
2023-02-23T22:49:56.236Z,14.55
2023-02-23T22:52:23.894Z,12.68
2023-02-23T22:54:51.342Z,17.60
2023-02-23T22:57:18.210Z,11.93
2023-02-23T22:59:54.670Z,13.43
2023-02-23T23:02:23.061Z,11.57
2023-02-23T23:04:50.284Z,12.90
2023-02-23T23:07:20.026Z,13.73
2023-02-23T23:09:47.019Z,12.70
2023-02-23T23:12:14.141Z,13.23
2023-02-23T23:14:41.246Z,10.52
2023-02-23T23:17:09.650Z,10.13
2023-02-23T23:19:39.691Z,8.23
2023-02-23T23:22:13.180Z,8.77
2023-02-23T23:24:45.910Z,10.10
2023-02-23T23:27:14.737Z,10.02
2023-02-23T23:29:46.574Z,10.77
2023-02-23T23:32:18.292Z,11.18
2023-02-23T23:34:48.027Z,9.82
2023-02-23T23:37:19.244Z,7.93
2023-02-23T23:39:46.374Z,9.13
2023-02-23T23:42:13.651Z,12.77
2023-02-23T23:44:40.557Z,14.07
2023-02-23T23:47:08.187Z,14.73
2023-02-23T23:49:37.975Z,12.23
2023-02-23T23:52:05.830Z,12.07
2023-02-23T23:54:38.751Z,8.65
2023-02-23T23:57:06.730Z,8.75
2023-02-23T23:59:34.852Z,8.57
